Time,TemperatureF,DewpointF,PressureIn,WindDirection,WindDirectionDegrees,WindSpeedMPH,WindSpeedGustMPH,Humidity,HourlyPrecipIn,Conditions,Clouds,dailyrainin,SolarRadiationWatts/m^2,SoftwareType,DateUTC
2013-08-06 00:10:00,49.6,47.0,30.01,ESE,105,0.0,0.0,91,0.00,,,0.00,0,weatherlink.com 1.10,2013-08-06 04:10:00,
2013-08-06 00:25:00,49.1,47.0,30.01,ESE,105,0.0,2.0,91,0.00,,,0.00,0,weatherlink.com 1.10,2013-08-06 04:25:00,
2013-08-06 00:40:00,49.5,47.0,30.01,ESE,105,0.0,0.0,92,0.00,,,0.00,0,weatherlink.com 1.10,2013-08-06 04:40:00,
2013-08-06 00:55:00,49.0,47.0,30.01,ESE,105,0.0,1.0,91,0.00,,,0.00,0,weatherlink.com 1.10,2013-08-06 04:55:00,
2013-08-06 01:10:00,48.6,46.0,30.02,ESE,105,0.0,1.0,92,0.00,,,0.00,0,weatherlink.com 1.10,2013-08-06 05:10:00,
2013-08-06 01:26:00,48.3,46.0,30.02,ESE,111,0.0,0.0,92,0.00,,,0.00,0,weatherlink.com 1.10,2013-08-06 05:26:00,
2013-08-06 01:41:00,47.9,46.0,30.02,ESE,111,0.0,0.0,93,0.00,,,0.00,0,weatherlink.com 1.10,2013-08-06 05:41:00,
2013-08-06 01:56:00,47.7,46.0,30.02,ESE,111,0.0,0.0,93,0.00,,,0.00,0,weatherlink.com 1.10,2013-08-06 05:56:00,
2013-08-06 02:11:00,47.6,46.0,30.02,ESE,111,0.0,0.0,94,0.00,,,0.00,0,weatherlink.com 1.10,2013-08-06 06:11:00,
2013-08-06 02:26:00,47.5,46.0,30.02,ESE,111,0.0,0.0,94,0.00,,,0.00,0,weatherlink.com 1.10,2013-08-06 06:26:00,
2013-08-06 02:41:00,47.5,46.0,30.02,ESE,111,0.0,0.0,94,0.00,,,0.00,0,weatherlink.com 1.10,2013-08-06 06:41:00,
2013-08-06 02:56:00,47.6,46.0,30.02,ESE,111,0.0,0.0,94,0.00,,,0.00,0,weatherlink.com 1.10,2013-08-06 06:56:00,
2013-08-06 03:11:00,47.4,46.0,30.03,ESE,111,0.0,0.0,94,0.00,,,0.00,0,weatherlink.com 1.10,2013-08-06 07:11:00,
2013-08-06 03:26:00,47.1,46.0,30.02,ESE,111,0.0,0.0,94,0.00,,,0.00,0,weatherlink.com 1.10,2013-08-06 07:26:00,
2013-08-06 03:41:00,46.7,45.0,30.03,ESE,111,0.0,0.0,94,0.00,,,0.00,0,weatherlink.com 1.10,2013-08-06 07:41:00,
2013-08-06 03:56:00,46.4,45.0,30.03,ESE,111,0.0,0.0,94,0.00,,,0.00,0,weatherlink.com 1.10,2013-08-06 07:56:00,
2013-08-06 04:11:00,46.1,45.0,30.04,ESE,111,0.0,0.0,94,0.00,,,0.00,0,weatherlink.com 1.10,2013-08-06 08:11:00,
2013-08-06 04:26:00,45.9,44.0,30.04,ESE,111,0.0,1.0,94,0.00,,,0.00,0,weatherlink.com 1.10,2013-08-06 08:26:00,
2013-08-06 04:41:00,45.9,44.0,30.04,ESE,111,0.0,1.0,94,0.00,,,0.00,0,weatherlink.com 1.10,2013-08-06 08:41:00,
2013-08-06 04:56:00,45.7,44.0,30.05,ESE,111,0.0,0.0,95,0.00,,,0.00,0,weatherlink.com 1.10,2013-08-06 08:56:00,
2013-08-06 05:11:00,45.7,44.0,30.05,ESE,111,0.0,1.0,95,0.00,,,0.00,0,weatherlink.com 1.10,2013-08-06 09:11:00,
2013-08-06 05:26:00,45.8,45.0,30.05,ESE,111,0.0,0.0,95,0.00,,,0.00,0,weatherlink.com 1.10,2013-08-06 09:26:00,
2013-08-06 05:41:00,45.9,45.0,30.06,ESE,111,0.0,0.0,95,0.00,,,0.00,7,weatherlink.com 1.10,2013-08-06 09:41:00,
2013-08-06 05:56:00,46.3,45.0,30.06,ESE,111,0.0,0.0,95,0.00,,,0.00,19,weatherlink.com 1.10,2013-08-06 09:56:00,
2013-08-06 06:11:00,46.9,46.0,30.07,ESE,111,0.0,1.0,95,0.00,,,0.00,47,weatherlink.com 1.10,2013-08-06 10:11:00,
2013-08-06 06:26:00,48.5,47.0,30.07,ESE,111,0.0,0.0,95,0.00,,,0.00,37,weatherlink.com 1.10,2013-08-06 10:26:00,
2013-08-06 06:41:00,49.2,48.0,30.07,ESE,111,0.0,0.0,95,0.00,,,0.00,63,weatherlink.com 1.10,2013-08-06 10:41:00,
2013-08-06 06:56:00,50.6,49.0,30.07,ESE,111,0.0,0.0,94,0.00,,,0.00,54,weatherlink.com 1.10,2013-08-06 10:56:00,
2013-08-06 07:11:00,50.7,49.0,30.07,ESE,111,0.0,1.0,92,0.00,,,0.00,70,weatherlink.com 1.10,2013-08-06 11:11:00,
2013-08-06 07:26:00,50.9,49.0,30.08,ESE,111,0.0,0.0,93,0.00,,,0.00,72,weatherlink.com 1.10,2013-08-06 11:26:00,
2013-08-06 07:41:00,51.2,49.0,30.08,ESE,111,0.0,1.0,92,0.00,,,0.00,63,weatherlink.com 1.10,2013-08-06 11:41:00,
2013-08-06 07:56:00,52.3,50.0,30.09,ESE,110,1.0,3.0,90,0.00,,,0.00,88,weatherlink.com 1.10,2013-08-06 11:56:00,
2013-08-06 08:11:00,54.3,52.0,30.09,East,101,1.0,3.0,90,0.00,,,0.00,93,weatherlink.com 1.10,2013-08-06 12:11:00,
2013-08-06 08:26:00,56.3,52.0,30.09,ESE,103,2.0,3.0,84,0.00,,,0.00,76,weatherlink.com 1.10,2013-08-06 12:26:00,
2013-08-06 08:42:00,58.4,53.0,30.09,ENE,66,1.0,4.0,81,0.00,,,0.00,76,weatherlink.com 1.10,2013-08-06 12:42:00,
2013-08-06 08:57:00,60.8,53.0,30.09,East,90,1.0,4.0,75,0.00,,,0.00,81,weatherlink.com 1.10,2013-08-06 12:57:00,
2013-08-06 09:12:00,62.7,54.0,30.09,ESE,112,0.0,2.0,72,0.00,,,0.00,74,weatherlink.com 1.10,2013-08-06 13:12:00,
2013-08-06 09:27:00,63.4,54.0,30.09,SE,127,1.0,6.0,72,0.00,,,0.00,76,weatherlink.com 1.10,2013-08-06 13:27:00,
2013-08-06 09:42:00,64.8,54.0,30.09,ESE,121,3.0,4.0,68,0.00,,,0.00,76,weatherlink.com 1.10,2013-08-06 13:42:00,
2013-08-06 09:57:00,65.6,54.0,30.09,East,101,2.0,5.0,67,0.00,,,0.00,72,weatherlink.com 1.10,2013-08-06 13:57:00,
2013-08-06 10:12:00,67.0,53.0,30.09,East,80,2.0,6.0,61,0.00,,,0.00,72,weatherlink.com 1.10,2013-08-06 14:12:00,
2013-08-06 10:27:00,68.0,54.0,30.09,North,9,0.0,3.0,61,0.00,,,0.00,74,weatherlink.com 1.10,2013-08-06 14:27:00,
2013-08-06 10:42:00,68.2,54.0,30.09,ESE,117,3.0,5.0,61,0.00,,,0.00,519,weatherlink.com 1.10,2013-08-06 14:42:00,
2013-08-06 10:57:00,68.0,51.0,30.08,NE,44,0.0,3.0,55,0.00,,,0.00,552,weatherlink.com 1.10,2013-08-06 14:57:00,
2013-08-06 11:12:00,69.4,52.0,30.09,WNW,301,1.0,3.0,54,0.00,,,0.00,592,weatherlink.com 1.10,2013-08-06 15:12:00,
2013-08-06 11:27:00,70.3,53.0,30.08,SSW,205,0.0,5.0,54,0.00,,,0.00,631,weatherlink.com 1.10,2013-08-06 15:27:00,
2013-08-06 11:42:00,70.7,51.0,30.08,ENE,78,1.0,4.0,50,0.00,,,0.00,666,weatherlink.com 1.10,2013-08-06 15:42:00,
2013-08-06 11:57:00,70.4,55.0,30.07,North,355,1.0,4.0,58,0.00,,,0.00,701,weatherlink.com 1.10,2013-08-06 15:57:00,
2013-08-06 12:12:00,71.1,51.0,30.07,NNW,335,0.0,9.0,50,0.00,,,0.00,740,weatherlink.com 1.10,2013-08-06 16:12:00,
2013-08-06 12:27:00,70.9,51.0,30.07,East,81,2.0,6.0,49,0.00,,,0.00,786,weatherlink.com 1.10,2013-08-06 16:27:00,
2013-08-06 12:42:00,71.8,51.0,30.07,WNW,291,2.0,4.0,48,0.00,,,0.00,476,weatherlink.com 1.10,2013-08-06 16:42:00,
2013-08-06 12:58:00,72.1,51.0,30.07,SSW,205,1.0,5.0,47,0.00,,,0.00,830,weatherlink.com 1.10,2013-08-06 16:58:00,
2013-08-06 13:13:00,72.7,51.0,30.07,East,94,3.0,5.0,46,0.00,,,0.00,830,weatherlink.com 1.10,2013-08-06 17:13:00,
2013-08-06 13:28:00,73.0,53.0,30.07,East,88,5.0,5.0,49,0.00,,,0.00,840,weatherlink.com 1.10,2013-08-06 17:28:00,
2013-08-06 13:43:00,72.9,50.0,30.07,West,267,0.0,7.0,45,0.00,,,0.00,793,weatherlink.com 1.10,2013-08-06 17:43:00,
2013-08-06 13:58:00,73.8,50.0,30.06,SE,146,0.0,7.0,44,0.00,,,0.00,914,weatherlink.com 1.10,2013-08-06 17:58:00,
2013-08-06 14:13:00,72.6,51.0,30.06,ENE,78,2.0,3.0,46,0.00,,,0.00,155,weatherlink.com 1.10,2013-08-06 18:13:00,
2013-08-06 14:28:00,72.6,51.0,30.06,ESE,121,0.0,6.0,46,0.00,,,0.00,158,weatherlink.com 1.10,2013-08-06 18:28:00,
2013-08-06 14:43:00,72.6,51.0,30.05,North,351,1.0,4.0,47,0.00,,,0.00,735,weatherlink.com 1.10,2013-08-06 18:43:00,
2013-08-06 14:58:00,72.4,53.0,30.05,ESE,123,0.0,4.0,50,0.00,,,0.00,137,weatherlink.com 1.10,2013-08-06 18:58:00,
2013-08-06 15:13:00,72.0,54.0,30.06,East,96,3.0,5.0,53,0.00,,,0.00,357,weatherlink.com 1.10,2013-08-06 19:13:00,
2013-08-06 15:28:00,72.1,51.0,30.05,ESE,107,0.0,5.0,47,0.00,,,0.00,315,weatherlink.com 1.10,2013-08-06 19:28:00,
2013-08-06 15:43:00,71.5,52.0,30.06,NE,51,2.0,4.0,51,0.00,,,0.00,176,weatherlink.com 1.10,2013-08-06 19:43:00,
2013-08-06 15:58:00,72.1,54.0,30.05,North,349,1.0,5.0,54,0.00,,,0.00,125,weatherlink.com 1.10,2013-08-06 19:58:00,
2013-08-06 16:13:00,73.2,54.0,30.06,NW,307,0.0,2.0,51,0.00,,,0.00,111,weatherlink.com 1.10,2013-08-06 20:13:00,
2013-08-06 16:28:00,72.6,53.0,30.06,ESE,107,1.0,4.0,51,0.00,,,0.00,83,weatherlink.com 1.10,2013-08-06 20:28:00,
2013-08-06 16:43:00,72.2,55.0,30.06,West,263,0.0,5.0,55,0.00,,,0.00,67,weatherlink.com 1.10,2013-08-06 20:43:00,
2013-08-06 16:58:00,71.3,54.0,30.06,WSW,246,1.0,3.0,55,0.00,,,0.00,56,weatherlink.com 1.10,2013-08-06 20:58:00,
2013-08-06 17:13:00,70.1,54.0,30.06,NE,53,0.0,3.0,58,0.00,,,0.00,113,weatherlink.com 1.10,2013-08-06 21:13:00,
2013-08-06 17:28:00,69.8,57.0,30.06,SE,136,0.0,1.0,63,0.00,,,0.00,134,weatherlink.com 1.10,2013-08-06 21:28:00,
2013-08-06 17:43:00,69.4,56.0,30.06,SE,136,0.0,0.0,62,0.00,,,0.00,105,weatherlink.com 1.10,2013-08-06 21:43:00,
2013-08-06 17:58:00,68.8,55.0,30.07,SE,142,0.0,1.0,62,0.00,,,0.00,86,weatherlink.com 1.10,2013-08-06 21:58:00,
2013-08-06 18:13:00,68.2,56.0,30.07,SSE,151,0.0,1.0,65,0.00,,,0.00,77,weatherlink.com 1.10,2013-08-06 22:13:00,
2013-08-06 18:28:00,68.1,57.0,30.06,East,81,0.0,2.0,67,0.00,,,0.00,91,weatherlink.com 1.10,2013-08-06 22:28:00,
2013-08-06 18:43:00,68.7,54.0,30.06,SE,129,0.0,3.0,59,0.00,,,0.00,69,weatherlink.com 1.10,2013-08-06 22:43:00,
2013-08-06 18:58:00,68.5,55.0,30.06,ESE,116,0.0,2.0,62,0.00,,,0.00,26,weatherlink.com 1.10,2013-08-06 22:58:00,
2013-08-06 19:13:00,67.7,55.0,30.07,ESE,116,0.0,0.0,64,0.00,,,0.00,19,weatherlink.com 1.10,2013-08-06 23:13:00,
2013-08-06 19:28:00,66.6,54.0,30.07,ESE,116,0.0,0.0,64,0.00,,,0.00,14,weatherlink.com 1.10,2013-08-06 23:28:00,
2013-08-06 19:43:00,65.3,54.0,30.07,ESE,116,0.0,0.0,67,0.00,,,0.00,11,weatherlink.com 1.10,2013-08-06 23:43:00,
2013-08-06 19:58:00,64.2,54.0,30.07,ESE,116,0.0,0.0,69,0.00,,,0.00,5,weatherlink.com 1.10,2013-08-06 23:58:00,
2013-08-06 20:13:00,63.2,54.0,30.07,ESE,116,0.0,0.0,73,0.00,,,0.00,0,weatherlink.com 1.10,2013-08-07 00:13:00,
2013-08-06 20:28:00,62.6,54.0,30.07,ESE,116,0.0,1.0,73,0.00,,,0.00,0,weatherlink.com 1.10,2013-08-07 00:28:00,
2013-08-06 20:43:00,61.9,54.0,30.07,ESE,116,0.0,0.0,75,0.00,,,0.00,0,weatherlink.com 1.10,2013-08-07 00:43:00,
2013-08-06 20:58:00,61.2,53.0,30.08,ESE,116,0.0,0.0,75,0.00,,,0.00,0,weatherlink.com 1.10,2013-08-07 00:58:00,
2013-08-06 21:13:00,60.4,53.0,30.08,ESE,116,0.0,0.0,76,0.00,,,0.00,0,weatherlink.com 1.10,2013-08-07 01:13:00,
2013-08-06 21:28:00,59.4,53.0,30.08,ESE,116,0.0,0.0,79,0.00,,,0.00,0,weatherlink.com 1.10,2013-08-07 01:28:00,
2013-08-06 21:43:00,58.5,53.0,30.08,ESE,116,0.0,0.0,82,0.00,,,0.00,0,weatherlink.com 1.10,2013-08-07 01:43:00,
2013-08-06 21:58:00,57.8,53.0,30.08,ESE,116,0.0,0.0,84,0.00,,,0.00,0,weatherlink.com 1.10,2013-08-07 01:58:00,
2013-08-06 22:13:00,57.4,53.0,30.08,ESE,116,0.0,0.0,84,0.00,,,0.00,0,weatherlink.com 1.10,2013-08-07 02:13:00,
2013-08-06 22:28:00,56.9,53.0,30.08,ESE,116,0.0,0.0,86,0.00,,,0.00,0,weatherlink.com 1.10,2013-08-07 02:28:00,
2013-08-06 22:43:00,56.4,53.0,30.08,ESE,116,0.0,0.0,88,0.00,,,0.00,0,weatherlink.com 1.10,2013-08-07 02:43:00,
2013-08-06 22:58:00,55.8,52.0,30.08,ESE,116,0.0,0.0,87,0.00,,,0.00,0,weatherlink.com 1.10,2013-08-07 02:58:00,
2013-08-06 23:13:00,55.4,52.0,30.07,ESE,116,0.0,1.0,89,0.00,,,0.00,0,weatherlink.com 1.10,2013-08-07 03:13:00,
2013-08-06 23:28:00,55.1,52.0,30.08,ESE,116,0.0,0.0,90,0.00,,,0.00,0,weatherlink.com 1.10,2013-08-07 03:28:00,
2013-08-06 23:43:00,54.9,53.0,30.08,ESE,116,0.0,0.0,92,0.00,,,0.00,0,weatherlink.com 1.10,2013-08-07 03:43:00,
2013-08-06 23:58:00,54.7,53.0,30.08,ESE,116,0.0,0.0,92,0.00,,,0.00,0,weatherlink.com 1.10,2013-08-07 03:58:00,